00TE weather

Tcjc-Northeast Campus Heliport
Fort Worth, Texas, United States

Public forecast

Using degrees Fahrenheit for public forecast. Weather courtesy of forecast.io.

Closest aviation weather report (METAR) to Tcjc-Northeast Campus Heliport

Closest report is Dallas Fort Worth International Airport, 8.2 nm (15.2 km) ENE. Retrieved 2020/04/04 08:53 UTC (51 minutes ago):

KDFW 040853Z 34013KT 10SM OVC010 04/03 A3005 RMK AO2 SLP174 60000 T00440033 58010

Closest aviation forecast (TAF) to Tcjc-Northeast Campus Heliport

Closest forecast is Dallas Fort Worth International Airport, 8.2 nm (15.2 km) ENE. Retrieved 2020/04/04 06:27 UTC (3 hours ago):

TAF KDFW 040525Z 0406/0512 34010KT 6SM -DZ VCTS OVC006CB FM040800 35008KT P6SM VCSH OVC005 FM041600 34007KT 5SM -SHRA BR OVC008 FM042100 01006KT P6SM BKN015 FM050300 07004KT P6SM OVC020